aviador You're here:

KIPJ Decoded Metar

LINCOLNTON in NC, USA
Report Time2017-05-23 20:25:00
UTC Time2017-05-23 20:32:17
Flight Rules ifr IFR
WindCalm
Visibility9999 m
Phenomena:N/A
Clouds:Scattered 004 Hf
Broken 008 Hf
Broken 012 Hf
Expected CloudBase > 400 ft AGL from Temp-Dew spread
Ceiling800 ft
Temp20°C (ISA +7)
Dew Point19°C (94% RH)
QNH1007 hPa
Density Alt2,162 ft
Elevation876 ft
Report Wrong Elevation
Raw Report
KIPJ 232025Z AUTO 00000KT 10SM SCT004 BKN008 BKN012 20/19 A2973
RMK AO2 T02020191=

Extra information for KIPJ:More info

Metar Taf Metar & Taf Last 4 Metars F.Rules Stats Wind Profile Meteogram Temp Stats Airport Information Weather charts Add Link Nearby VenuesMetar ALERT Operation Metar Decoded Social comments

AIRNAV info for KIPJ